Time;durP1;ratioP1;P1;durP2;ratioP2;P2;SDS_P1;SDS_P2;PMS_P1;PMS_P2;Temp;Humidity;BMP_temperature;BMP_pressure;BME280_temperature;BME280_humidity;BME280_pressure;Samples;Min_cycle;Max_cycle;Signal;HPM_P1;HPM_P2
2022/07/21 00:01:24;;;;;;;13.52;11.38;;;;;;;20.14;97.18;101081.44;5000439;28;20054;-82
2022/07/21 00:03:52;;;;;;;15.77;12.00;;;;;;;20.17;98.70;101073.03;4998875;28;20084;-82
2022/07/21 00:06:19;;;;;;;14.50;12.13;;;;;;;20.13;98.69;101069.16;4998017;28;20078;-82
2022/07/21 00:08:45;;;;;;;13.30;11.60;;;;;;;20.03;98.77;101070.63;5012925;28;20050;-81
2022/07/21 00:11:12;;;;;;;13.20;11.57;;;;;;;19.97;98.63;101079.41;5021355;28;20073;-81
2022/07/21 00:13:39;;;;;;;15.48;11.98;;;;;;;20.18;99.05;101065.91;5025313;28;20084;-79
2022/07/21 00:16:06;;;;;;;15.68;12.40;;;;;;;20.15;99.74;101056.50;5024585;28;20065;-81
2022/07/21 00:18:33;;;;;;;14.43;12.20;;;;;;;20.12;98.30;101062.22;5021672;28;20053;-80
2022/07/21 00:21:01;;;;;;;13.88;11.50;;;;;;;20.17;98.29;101080.19;5022918;28;20076;-82
2022/07/21 00:23:28;;;;;;;13.63;11.77;;;;;;;20.19;99.65;101084.28;5022327;28;20065;-79
2022/07/21 00:25:55;;;;;;;13.85;11.85;;;;;;;20.37;98.42;101104.88;5021665;28;20542;-81
2022/07/21 00:28:22;;;;;;;13.10;11.80;;;;;;;20.17;99.10;101096.13;5010887;28;20054;-79
2022/07/21 00:30:48;;;;;;;15.32;12.00;;;;;;;20.14;99.10;101093.91;5000074;28;20077;-82
2022/07/21 00:33:15;;;;;;;14.15;12.57;;;;;;;20.08;99.71;101082.25;4998016;28;20058;-81
2022/07/21 00:35:42;;;;;;;17.85;12.70;;;;;;;20.08;99.91;101074.28;4996942;28;20129;-81
2022/07/21 00:38:10;;;;;;;14.30;12.80;;;;;;;20.14;100.00;101075.31;5005163;28;20097;-79
2022/07/21 00:40:36;;;;;;;15.68;12.75;;;;;;;20.02;100.00;101067.16;5018383;28;20050;-81
2022/07/21 00:43:03;;;;;;;13.40;11.98;;;;;;;20.05;100.00;101087.97;5020712;28;20105;-81
2022/07/21 00:45:30;;;;;;;15.65;12.98;;;;;;;20.09;100.00;101099.00;5022667;28;20085;-81
2022/07/21 00:47:57;;;;;;;14.77;13.02;;;;;;;20.04;100.00;101094.31;5015033;28;20073;-81
2022/07/21 00:50:23;;;;;;;14.35;12.50;;;;;;;20.08;100.00;101108.81;5016709;28;20073;-80
2022/07/21 00:52:50;;;;;;;14.73;12.77;;;;;;;19.95;100.00;101111.50;5019741;28;20200;-79
2022/07/21 00:55:20;;;;;;;13.40;12.07;;;;;;;19.52;100.00;101106.59;5022323;28;20526;-79
2022/07/21 00:57:48;;;;;;;15.23;13.10;;;;;;;19.48;100.00;101110.63;5015935;28;20043;-80
2022/07/21 01:00:19;;;;;;;14.30;12.77;;;;;;;19.37;100.00;101119.22;5004401;28;20089;-80
2022/07/21 01:02:46;;;;;;;15.07;13.43;;;;;;;19.16;100.00;101114.88;5009964;28;20597;-82
2022/07/21 01:05:15;;;;;;;19.20;13.63;;;;;;;19.19;100.00;101121.63;5022617;28;20102;-81
2022/07/21 01:07:43;;;;;;;14.95;13.45;;;;;;;19.25;100.00;101110.22;5004231;28;20046;-80
2022/07/21 01:10:14;;;;;;;17.45;13.93;;;;;;;19.21;100.00;101101.03;5002686;28;20082;-80
2022/07/21 01:12:42;;;;;;;19.58;13.68;;;;;;;19.44;100.00;101111.25;4997130;28;20085;-80
2022/07/21 01:15:11;;;;;;;19.55;14.88;;;;;;;19.43;100.00;101118.38;5001113;28;20116;-79
2022/07/21 01:17:38;;;;;;;17.33;13.38;;;;;;;19.41;100.00;101112.47;5000980;28;20057;-79
2022/07/21 01:20:07;;;;;;;20.52;14.13;;;;;;;19.45;100.00;101124.31;4998463;28;20137;-81
2022/07/21 01:22:37;;;;;;;16.75;13.93;;;;;;;19.47;100.00;101116.97;4996876;28;20058;-80
2022/07/21 01:25:04;;;;;;;15.45;13.40;;;;;;;19.43;100.00;101114.91;5002495;28;20049;-81
2022/07/21 01:27:31;;;;;;;15.23;13.40;;;;;;;19.28;100.00;101103.69;5016066;28;20475;-80
2022/07/21 01:29:58;;;;;;;16.45;14.38;;;;;;;19.41;100.00;101116.97;5019065;28;20088;-81
2022/07/21 01:32:25;;;;;;;16.08;14.38;;;;;;;19.38;100.00;101115.53;4996899;28;20160;-78
2022/07/21 01:34:52;;;;;;;17.60;15.55;;;;;;;19.51;100.00;101118.22;4995688;28;20047;-80
2022/07/21 01:37:22;;;;;;;18.38;14.95;;;;;;;19.35;100.00;101113.31;5014356;28;20128;-79
2022/07/21 01:42:35;;;;;;;19.27;14.80;;;;;;;19.56;100.00;101125.59;5015969;28;20164;-79
2022/07/21 01:45:01;;;;;;;18.13;15.68;;;;;;;19.51;100.00;101123.53;5017008;28;20054;-80
2022/07/21 01:47:28;;;;;;;18.63;14.82;;;;;;;19.43;100.00;101114.91;4996946;28;20695;-80
2022/07/21 01:49:55;;;;;;;19.15;14.77;;;;;;;19.41;100.00;101115.13;4996684;28;20101;-80
2022/07/21 01:52:22;;;;;;;19.08;14.93;;;;;;;19.50;100.00;101113.91;4998413;28;20092;-81
2022/07/21 01:54:50;;;;;;;19.90;15.95;;;;;;;19.47;100.00;101116.16;5000409;28;20427;-80
2022/07/21 01:57:16;;;;;;;18.45;15.65;;;;;;;19.42;100.00;101122.06;5002874;28;20104;-81
2022/07/21 01:59:44;;;;;;;18.35;15.93;;;;;;;19.40;100.00;101124.09;4999535;28;20129;-80
2022/07/21 02:02:11;;;;;;;18.02;16.17;;;;;;;19.38;100.00;101120.81;5000533;28;20054;-81
2022/07/21 02:04:38;;;;;;;23.45;16.33;;;;;;;19.31;100.00;101121.88;5000090;28;20082;-81
2022/07/21 02:07:04;;;;;;;21.70;17.52;;;;;;;19.41;100.00;101117.78;5002076;28;20047;-81
2022/07/21 02:09:31;;;;;;;21.45;17.63;;;;;;;19.46;100.00;101112.69;5000941;28;20134;-79
2022/07/21 02:11:59;;;;;;;21.15;16.80;;;;;;;19.38;100.00;101106.75;5001459;28;20061;-80
2022/07/21 02:14:25;;;;;;;20.58;17.10;;;;;;;19.32;100.00;101107.56;5001285;28;20057;-79
2022/07/21 02:16:52;;;;;;;20.13;17.52;;;;;;;19.30;100.00;101107.78;5016748;28;20065;-82
2022/07/21 02:19:19;;;;;;;21.58;17.65;;;;;;;19.37;100.00;101118.41;5019944;28;20554;-80
2022/07/21 02:21:45;;;;;;;21.13;18.52;;;;;;;19.35;100.00;101113.31;5021843;28;20081;-80
2022/07/21 02:24:12;;;;;;;23.00;19.20;;;;;;;19.32;100.00;101113.69;5013346;28;20527;-81
2022/07/21 02:26:39;;;;;;;21.52;17.95;;;;;;;19.37;100.00;101111.25;5001710;28;20057;-81
2022/07/21 02:29:06;;;;;;;23.60;19.15;;;;;;;19.35;100.00;101118.59;5000878;28;20420;-81
2022/07/21 02:31:34;;;;;;;20.77;18.67;;;;;;;19.32;100.00;101119.00;5000310;28;20129;-81
2022/07/21 02:34:00;;;;;;;21.65;19.33;;;;;;;19.27;100.00;101110.00;5006154;28;20045;-81
2022/07/21 02:36:27;;;;;;;23.80;19.58;;;;;;;19.30;100.00;101121.03;5022191;28;20522;-80
2022/07/21 02:38:54;;;;;;;22.95;19.60;;;;;;;19.22;100.00;101113.28;5020477;28;20392;-81
2022/07/21 02:41:20;;;;;;;23.55;19.50;;;;;;;19.25;100.00;101112.06;5011419;28;20068;-81
2022/07/21 02:43:47;;;;;;;22.30;20.00;;;;;;;19.21;100.00;101108.97;5013301;28;20077;-81
2022/07/21 02:46:15;;;;;;;24.77;19.85;;;;;;;19.26;100.00;101114.50;5028596;28;20077;-82
2022/07/21 02:48:42;;;;;;;24.90;18.98;;;;;;;19.24;100.00;101108.56;5018617;28;20507;-82
2022/07/21 02:51:08;;;;;;;23.08;19.63;;;;;;;19.21;100.00;101101.03;5008837;28;20054;-81
2022/07/21 02:56:03;;;;;;;25.08;20.73;;;;;;;19.18;100.00;101096.13;4996311;28;20508;-79
2022/07/21 02:58:30;;;;;;;25.08;19.83;;;;;;;19.11;100.00;101090.78;4998660;28;20085;-80
2022/07/21 03:00:58;;;;;;;22.20;19.80;;;;;;;19.26;100.00;101093.28;4999857;28;20061;-83
2022/07/21 03:03:31;;;;;;;27.75;19.38;;;;;;;19.24;100.00;101092.66;4998263;28;20507;-83
2022/07/21 03:05:58;;;;;;;;;;;;;;;19.39;100.00;101095.09;4960465;29;20138;-82
2022/07/21 03:08:25;;;;;;;21.60;18.92;;;;;;;19.33;100.00;101103.91;4959614;28;19970;-79
2022/07/21 03:10:52;;;;;;;20.63;17.90;;;;;;;19.37;100.00;101099.84;4960484;29;20134;-82
2022/07/21 03:13:19;;;;;;;19.25;17.17;;;;;;;19.34;100.00;101095.75;4961368;28;20054;-82
2022/07/21 03:15:45;;;;;;;18.92;16.55;;;;;;;19.25;100.00;101091.63;4980417;28;20472;-82
2022/07/21 03:18:12;;;;;;;19.85;17.75;;;;;;;19.13;100.00;101082.63;4980513;28;20086;-79
2022/07/21 03:20:42;;;;;;;21.85;15.82;;;;;;;19.16;100.00;101084.88;4981462;28;20078;-78
2022/07/21 03:23:08;;;;;;;18.13;16.23;;;;;;;19.19;100.00;101087.13;4982094;28;20051;-80
2022/07/21 03:25:35;;;;;;;18.60;16.40;;;;;;;19.19;100.00;101081.84;4983740;28;20066;-82
2022/07/21 03:28:02;;;;;;;18.48;15.73;;;;;;;19.09;100.00;101086.69;4983325;28;20144;-81
2022/07/21 03:30:29;;;;;;;19.38;16.25;;;;;;;19.11;100.00;101082.00;4983703;28;20042;-82
2022/07/21 03:32:56;;;;;;;17.40;15.38;;;;;;;19.08;100.00;101087.72;4983274;28;20078;-82
2022/07/21 03:35:23;;;;;;;18.20;16.25;;;;;;;19.01;100.00;101084.22;4981351;28;20105;-84
2022/07/21 03:37:54;;;;;;;20.98;16.50;;;;;;;18.96;100.00;101079.53;4981088;28;20058;-79
2022/07/21 03:40:24;;;;;;;18.90;16.80;;;;;;;18.99;100.00;101080.97;4980202;28;20074;-81
2022/07/21 03:42:50;;;;;;;19.75;16.95;;;;;;;18.96;100.00;101087.47;4981406;28;20134;-80
2022/07/21 03:45:17;;;;;;;19.17;16.63;;;;;;;18.99;100.00;101091.56;4980843;28;20055;-82
2022/07/21 03:47:44;;;;;;;19.02;16.25;;;;;;;18.90;100.00;101081.13;4981987;28;20082;-81
2022/07/21 03:50:12;;;;;;;19.92;17.25;;;;;;;18.89;100.00;101079.53;4981678;28;20538;-81
2022/07/21 03:52:39;;;;;;;22.40;15.85;;;;;;;18.93;100.00;101081.75;4980987;28;20135;-82
2022/07/21 03:55:14;;;;;;;18.08;16.20;;;;;;;18.92;100.00;101088.06;4981312;28;20071;-82
2022/07/21 03:57:42;;;;;;;19.73;16.88;;;;;;;18.87;100.00;101073.59;4981577;28;20074;-82
2022/07/21 04:00:13;;;;;;;18.55;16.52;;;;;;;18.88;100.00;101077.06;4979985;28;20554;-82
2022/07/21 04:02:42;;;;;;;19.15;16.65;;;;;;;18.89;100.00;101076.88;4980257;28;20563;-83
2022/07/21 04:05:10;;;;;;;22.23;17.70;;;;;;;18.94;100.00;101076.25;4981253;28;20051;-81
2022/07/21 04:07:37;;;;;;;26.85;16.98;;;;;;;19.04;100.00;101078.53;4979276;28;20047;-80
2022/07/21 04:10:04;;;;;;;18.33;16.35;;;;;;;19.04;100.00;101067.91;4980349;28;20079;-81
2022/07/21 04:12:32;;;;;;;18.33;16.42;;;;;;;19.03;100.00;101071.59;4980997;28;20057;-82
2022/07/21 04:14:59;;;;;;;19.75;16.02;;;;;;;18.98;100.00;101066.88;4981456;28;20407;-83
2022/07/21 04:17:26;;;;;;;23.25;16.30;;;;;;;19.01;100.00;101066.47;4980117;28;20106;-81
2022/07/21 04:19:52;;;;;;;19.60;17.45;;;;;;;18.95;100.00;101066.47;4981341;28;20078;-80
2022/07/21 04:22:19;;;;;;;20.80;16.83;;;;;;;19.00;100.00;101066.69;4980495;28;20650;-80
2022/07/21 04:24:45;;;;;;;20.33;16.50;;;;;;;19.06;100.00;101071.19;4979882;28;20093;-82
2022/07/21 04:27:12;;;;;;;22.75;16.73;;;;;;;19.10;100.00;101067.94;4982450;28;20074;-82
2022/07/21 04:29:40;;;;;;;26.40;17.08;;;;;;;19.43;100.00;101072.47;4985603;28;20086;-82
2022/07/21 04:32:07;;;;;;;20.27;16.50;;;;;;;19.41;100.00;101077.97;4983137;28;20093;-82
2022/07/21 04:34:34;;;;;;;18.25;15.60;;;;;;;19.39;100.00;101074.69;4980566;28;20492;-81
2022/07/21 04:37:00;;;;;;;17.52;15.05;;;;;;;19.49;100.00;101072.47;4982396;28;20106;-81
2022/07/21 04:39:28;;;;;;;18.50;15.43;;;;;;;19.42;100.00;101074.28;4981894;28;20093;-83
2022/07/21 04:41:55;;;;;;;16.65;12.93;;;;;;;19.31;100.00;101064.31;4979314;28;20081;-83
2022/07/21 04:44:22;;;;;;;18.27;13.85;;;;;;;19.38;100.00;101070.41;4978526;28;20118;-82
2022/07/21 04:46:50;;;;;;;15.52;13.35;;;;;;;19.41;100.00;101082.44;4979100;28;20094;-82
2022/07/21 04:49:16;;;;;;;16.25;14.10;;;;;;;19.33;100.00;101080.03;4979564;28;20081;-80
2022/07/21 04:51:43;;;;;;;14.73;13.23;;;;;;;19.39;100.00;101077.34;4979693;28;20086;-79
2022/07/21 04:54:13;;;;;;;15.52;13.23;;;;;;;19.51;100.00;101085.56;4980321;28;20050;-83
2022/07/21 04:56:44;;;;;;;15.02;13.43;;;;;;;19.54;100.00;101088.63;4982018;28;20101;-80
2022/07/21 04:59:11;;;;;;;14.73;13.20;;;;;;;19.55;100.00;101084.94;4981970;28;20134;-81
2022/07/21 05:01:38;;;;;;;15.50;13.15;;;;;;;19.71;100.00;101088.22;4981343;28;20137;-82
2022/07/21 05:04:07;;;;;;;14.43;12.60;;;;;;;19.84;100.00;101106.81;4979801;28;20138;-80
2022/07/21 05:06:34;;;;;;;16.38;13.25;;;;;;;19.89;100.00;101107.00;4980542;28;20138;-83
2022/07/21 05:09:01;;;;;;;16.13;12.73;;;;;;;19.95;100.00;101103.53;4981010;28;20110;-80
2022/07/21 05:11:28;;;;;;;16.42;12.93;;;;;;;20.08;100.00;101095.53;4980485;28;20078;-82
2022/07/21 05:13:57;;;;;;;14.48;12.13;;;;;;;19.97;100.00;101106.78;4980268;28;20090;-81
2022/07/21 05:16:24;;;;;;;16.30;11.95;;;;;;;20.07;100.00;101104.53;4978167;28;20051;-82
2022/07/21 05:18:51;;;;;;;14.27;12.57;;;;;;;20.18;100.00;101114.53;4978949;28;20089;-83
2022/07/21 05:21:19;;;;;;;17.02;12.40;;;;;;;20.05;100.00;101114.56;4978928;28;20086;-82
2022/07/21 05:23:46;;;;;;;13.35;11.57;;;;;;;20.05;100.00;101119.88;4977476;28;20130;-83
2022/07/21 05:26:13;;;;;;;13.45;11.80;;;;;;;19.89;100.00;101112.31;4978789;28;20387;-83
2022/07/21 05:28:40;;;;;;;13.70;12.30;;;;;;;19.82;100.00;101108.88;4978063;28;20054;-86
2022/07/21 05:31:08;;;;;;;15.27;12.00;;;;;;;19.84;100.00;101118.25;4979014;28;20051;-82
2022/07/21 05:33:35;;;;;;;17.90;12.18;;;;;;;19.80;100.00;101110.91;4978858;28;20166;-80
2022/07/21 05:36:02;;;;;;;14.30;11.93;;;;;;;19.84;100.00;101117.44;4978607;28;20061;-82
2022/07/21 05:38:30;;;;;;;16.70;12.25;;;;;;;19.74;100.00;101107.22;4978141;28;20047;-82
2022/07/21 05:40:59;;;;;;;16.98;12.10;;;;;;;19.69;100.00;101114.16;4978128;28;20074;-82
2022/07/21 05:43:26;;;;;;;13.80;12.27;;;;;;;19.60;100.00;101105.59;4978505;28;20105;-82
2022/07/21 05:45:53;;;;;;;14.20;12.07;;;;;;;19.70;100.00;101103.34;4977933;28;20082;-81
2022/07/21 05:48:19;;;;;;;14.93;12.35;;;;;;;19.68;100.00;101110.69;4979473;28;20051;-82
2022/07/21 05:50:46;;;;;;;14.32;12.82;;;;;;;19.69;100.00;101104.38;4979574;28;20082;-83
2022/07/21 05:53:13;;;;;;;12.90;11.48;;;;;;;19.66;100.00;101101.28;4984247;28;20054;-82
2022/07/21 05:55:41;;;;;;;19.45;12.63;;;;;;;19.65;100.00;101112.94;4984865;28;20078;-84
2022/07/21 05:58:07;;;;;;;15.30;11.85;;;;;;;19.59;100.00;101119.88;4983244;28;20093;-83
2022/07/21 06:00:37;;;;;;;14.27;12.13;;;;;;;19.64;100.00;101121.91;4978192;28;20110;-81
2022/07/21 06:03:06;;;;;;;15.20;12.73;;;;;;;19.58;100.00;101128.03;4978533;28;20058;-82
2022/07/21 06:05:35;;;;;;;15.77;12.55;;;;;;;19.49;100.00;101122.88;4977510;28;20110;-81
2022/07/21 06:08:02;;;;;;;14.52;12.40;;;;;;;19.42;100.00;101127.38;4978436;28;20082;-85
2022/07/21 06:10:29;;;;;;;14.13;12.50;;;;;;;19.46;100.00;101125.94;4981353;28;20133;-84
2022/07/21 06:12:57;;;;;;;13.85;12.13;;;;;;;19.35;100.00;101115.94;4979460;28;20082;-85
2022/07/21 06:19:19;;;;;;;15.57;12.15;;;;;;;19.44;100.00;101104.09;4975520;28;20057;-85
2022/07/21 06:21:51;;;;;;;17.98;12.55;;;;;;;19.50;100.00;101092.69;4998192;28;20168;-82
2022/07/21 06:24:35;;;;;;;13.93;12.52;;;;;;;19.89;100.00;101109.66;4998729;28;20097;-84
2022/07/21 06:30:02;;;;;;;14.35;12.25;;;;;;;20.33;99.90;101110.81;5020548;23;20125;-83
2022/07/21 06:32:28;;;;;;;12.88;11.52;;;;;;;20.99;96.51;101105.28;5017879;28;20062;-82
2022/07/21 06:34:55;;;;;;;14.63;11.00;;;;;;;20.96;96.59;101095.06;5024238;28;20050;-82
2022/07/21 06:37:22;;;;;;;14.50;10.35;;;;;;;21.29;94.44;101100.19;5023442;28;20085;-82
2022/07/21 06:39:49;;;;;;;14.55;10.45;;;;;;;21.47;93.11;101109.09;5008407;28;20054;-82
2022/07/21 06:42:15;;;;;;;9.40;8.45;;;;;;;21.88;90.90;101106.91;5005176;28;20084;-83
2022/07/21 06:44:42;;;;;;;9.35;7.47;;;;;;;23.16;84.98;101115.72;4984064;28;20114;-83
2022/07/21 06:47:10;;;;;;;7.50;6.25;;;;;;;24.76;78.27;101104.72;4981668;28;20441;-84
2022/07/21 06:49:37;;;;;;;7.88;6.72;;;;;;;23.65;81.17;101114.59;4982902;28;20533;-82
2022/07/21 06:52:04;;;;;;;7.00;6.30;;;;;;;22.89;82.53;101117.13;4982475;28;20086;-83
2022/07/21 06:54:30;;;;;;;8.23;6.28;;;;;;;22.22;85.48;101122.38;4983357;28;20078;-80
2022/07/21 06:56:57;;;;;;;9.25;6.03;;;;;;;22.34;84.96;101119.81;4980759;28;20086;-83
2022/07/21 06:59:24;;;;;;;9.20;6.20;;;;;;;22.77;83.79;101125.84;4981155;28;20078;-83
2022/07/21 07:01:50;;;;;;;6.03;5.43;;;;;;;23.36;81.68;101115.44;4979904;28;20051;-82
2022/07/21 07:04:18;;;;;;;6.07;5.47;;;;;;;23.99;80.79;101113.00;4975257;28;20047;-83
2022/07/21 07:06:45;;;;;;;7.45;5.57;;;;;;;25.18;74.65;101107.13;4993127;28;20439;-82
2022/07/21 07:09:11;;;;;;;6.72;5.30;;;;;;;25.92;70.78;101111.34;4990773;28;20061;-83
2022/07/21 07:11:39;;;;;;;8.27;5.18;;;;;;;26.51;69.15;101110.78;4963826;28;20055;-83
2022/07/21 07:14:05;;;;;;;7.32;5.30;;;;;;;26.57;69.61;101110.59;4971608;28;20089;-84
2022/07/21 07:16:32;;;;;;;7.00;5.43;;;;;;;27.31;67.73;101113.56;4983477;28;20081;-84
2022/07/21 07:18:59;;;;;;;7.72;5.30;;;;;;;27.41;66.21;101110.16;4980861;28;20426;-83
2022/07/21 07:21:27;;;;;;;7.43;5.18;;;;;;;28.08;62.89;101118.44;4980151;28;20047;-85
2022/07/21 07:23:53;;;;;;;6.38;5.70;;;;;;;27.88;63.13;101118.34;4979880;28;20078;-84
2022/07/21 07:26:20;;;;;;;8.13;5.63;;;;;;;27.92;64.12;101118.59;4980269;28;20071;-84
2022/07/21 07:28:47;;;;;;;7.18;5.82;;;;;;;27.68;63.64;101102.84;4981495;28;20141;-85
2022/07/21 07:31:13;;;;;;;6.20;5.57;;;;;;;26.46;67.71;101100.00;4980175;28;20089;-84
2022/07/21 07:33:40;;;;;;;7.40;6.10;;;;;;;27.43;65.13;101116.88;4986619;28;20074;-85
2022/07/21 07:36:10;;;;;;;8.60;5.90;;;;;;;28.11;62.62;101118.97;4983438;28;20089;-82
2022/07/21 07:38:38;;;;;;;7.03;5.60;;;;;;;28.08;61.29;101107.69;4982117;28;20039;-85
2022/07/21 07:41:05;;;;;;;6.38;5.78;;;;;;;26.63;65.73;101112.28;4993109;28;20142;-84
2022/07/21 07:43:32;;;;;;;7.55;6.10;;;;;;;26.65;65.37;101120.91;4980441;28;20603;-84
2022/07/21 07:46:00;;;;;;;6.63;5.93;;;;;;;26.83;65.87;101110.91;4961054;28;20343;-82
2022/07/21 07:48:27;;;;;;;9.82;6.80;;;;;;;25.94;68.07;101109.22;4976336;28;20043;-83
2022/07/21 07:50:53;;;;;;;9.02;6.57;;;;;;;26.06;68.22;101098.38;4987901;28;20085;-84
2022/07/21 07:53:20;;;;;;;7.30;6.53;;;;;;;26.54;66.29;101107.59;4986149;28;20050;-82
2022/07/21 07:55:49;;;;;;;7.47;6.78;;;;;;;26.57;67.77;101096.38;5000445;28;20085;-81
2022/07/21 07:58:16;;;;;;;7.53;6.63;;;;;;;26.32;67.87;101102.25;4998671;28;20078;-81
2022/07/21 08:00:43;;;;;;;8.68;6.82;;;;;;;26.33;68.59;101109.22;5000102;28;20058;-82
2022/07/21 08:03:09;;;;;;;8.13;7.32;;;;;;;26.90;66.50;101106.16;4991632;28;20050;-82
2022/07/21 08:05:36;;;;;;;8.68;7.65;;;;;;;26.15;68.26;101109.47;4980374;28;20050;-83
2022/07/21 08:08:03;;;;;;;10.10;7.88;;;;;;;26.12;67.36;101106.25;4981460;28;20074;-84
2022/07/21 08:10:30;;;;;;;9.43;8.00;;;;;;;26.37;65.73;101097.75;4976385;28;20134;-83
2022/07/21 08:12:58;;;;;;;10.60;7.75;;;;;;;26.21;64.78;101103.94;4979141;28;20085;-84
2022/07/21 08:15:25;;;;;;;10.32;8.25;;;;;;;26.21;64.41;101103.94;4978612;28;20074;-84
2022/07/21 08:17:51;;;;;;;9.32;7.97;;;;;;;25.40;66.54;101103.53;4980514;28;20097;-83
2022/07/21 08:20:18;;;;;;;12.02;8.05;;;;;;;24.79;69.91;101086.34;4979254;28;20527;-84
2022/07/21 08:22:45;;;;;;;9.27;7.95;;;;;;;25.07;70.74;101103.44;4979386;28;20055;-81
2022/07/21 08:25:11;;;;;;;10.75;9.20;;;;;;;26.03;65.62;101106.91;4977349;28;20082;-83
2022/07/21 08:27:41;;;;;;;12.48;9.93;;;;;;;26.22;65.74;101104.75;4978209;28;20082;-84
2022/07/21 08:30:11;;;;;;;12.80;8.82;;;;;;;27.68;61.86;101104.72;4975934;28;20074;-85
2022/07/21 08:32:38;;;;;;;12.50;9.38;;;;;;;26.99;62.06;101102.75;4978227;28;20463;-85
2022/07/21 08:35:08;;;;;;;13.48;8.73;;;;;;;26.73;63.70;101111.59;4979252;28;20062;-84
2022/07/21 08:37:35;;;;;;;11.55;9.55;;;;;;;26.86;64.04;101108.53;4978850;28;20098;-84
2022/07/21 08:40:01;;;;;;;14.93;8.80;;;;;;;26.77;62.00;101110.84;4977861;28;20527;-84
2022/07/21 08:42:28;;;;;;;13.65;8.90;;;;;;;25.49;66.06;101111.16;4977476;28;20425;-85
2022/07/21 08:44:54;;;;;;;10.50;9.40;;;;;;;24.67;67.05;101109.63;4975534;28;20081;-84
2022/07/21 08:47:23;;;;;;;13.27;9.65;;;;;;;24.35;69.39;101117.28;4978415;28;20125;-84
2022/07/21 08:49:49;;;;;;;12.68;10.23;;;;;;;24.03;71.09;101108.00;4974302;28;20073;-84
2022/07/21 08:52:18;;;;;;;12.38;9.93;;;;;;;24.29;71.09;101106.72;4976069;28;20054;-84
2022/07/21 08:54:44;;;;;;;15.27;10.63;;;;;;;24.47;69.70;101114.59;4977180;28;20491;-84
2022/07/21 08:57:11;;;;;;;12.18;10.48;;;;;;;24.60;68.30;101114.31;4989097;28;20070;-83
2022/07/21 08:59:38;;;;;;;14.48;11.45;;;;;;;24.61;68.03;101115.94;4987874;28;20107;-84
2022/07/21 09:02:04;;;;;;;11.23;10.02;;;;;;;25.06;68.21;101112.53;4988548;28;20444;-84
2022/07/21 09:04:35;;;;;;;12.40;8.85;;;;;;;25.05;65.50;101114.41;4985210;28;20069;-83
2022/07/21 09:07:03;;;;;;;16.23;9.55;;;;;;;25.49;64.65;101116.53;4984817;28;20077;-82
2022/07/21 09:09:32;;;;;;;19.38;10.15;;;;;;;26.44;62.29;101119.03;4988114;28;20078;-83
2022/07/21 09:12:00;;;;;;;16.33;8.32;;;;;;;25.93;62.77;101110.28;4984214;28;20619;-85
2022/07/21 09:14:31;;;;;;;9.85;7.03;;;;;;;26.12;60.43;101122.34;4986884;28;20046;-81
2022/07/21 09:17:00;;;;;;;14.27;8.20;;;;;;;25.45;63.10;101106.28;4986898;28;20097;-82
2022/07/21 09:19:28;;;;;;;9.32;7.53;;;;;;;24.45;64.79;101122.03;4983003;28;20446;-84
2022/07/21 09:22:01;;;;;;;10.52;7.97;;;;;;;24.60;65.13;101135.72;4990799;28;20053;-83
2022/07/21 09:24:33;;;;;;;13.48;9.02;;;;;;;24.33;65.28;101124.72;4995058;28;20637;-84
2022/07/21 09:27:06;;;;;;;9.68;7.50;;;;;;;24.49;64.86;101125.88;4989852;28;20506;-82
2022/07/21 09:29:37;;;;;;;14.73;7.78;;;;;;;24.43;65.20;101121.47;4999231;28;20058;-83
2022/07/21 09:32:19;;;;;;;11.20;7.45;;;;;;;24.64;65.25;101130.69;4987638;28;20054;-84
2022/07/21 09:34:48;;;;;;;10.85;7.10;;;;;;;24.71;65.69;101126.03;4979801;28;20058;-83
2022/07/21 09:37:17;;;;;;;10.02;7.38;;;;;;;25.11;64.12;101126.03;4986618;28;20082;-82
2022/07/21 09:39:46;;;;;;;12.18;7.90;;;;;;;24.79;64.94;101123.00;4986840;28;20086;-83
2022/07/21 09:42:16;;;;;;;8.68;7.65;;;;;;;24.72;64.42;101125.00;4983705;28;20115;-80
2022/07/21 09:44:45;;;;;;;8.80;7.50;;;;;;;25.14;64.12;101121.00;4988311;28;20252;-83
2022/07/21 09:47:14;;;;;;;10.10;7.32;;;;;;;25.82;62.38;101126.44;4983736;28;20047;-83
2022/07/21 09:49:42;;;;;;;8.23;7.13;;;;;;;26.01;61.85;101115.19;4980146;28;20362;-83
2022/07/21 09:52:25;;;;;;;16.33;8.07;;;;;;;25.20;62.38;101124.59;4962375;28;20059;-82
2022/07/21 09:54:51;;;;;;;;;;;;;;;25.13;63.26;101129.28;4978440;28;20053;-84
2022/07/21 09:57:19;;;;;;;9.45;7.50;;;;;;;25.29;63.58;101131.19;4980296;28;19922;-84
2022/07/21 09:59:48;;;;;;;10.60;7.43;;;;;;;25.21;62.30;101130.75;4978638;28;20074;-83
2022/07/21 10:02:18;;;;;;;9.90;6.85;;;;;;;25.40;62.60;101124.13;4980521;28;20479;-83
2022/07/21 10:04:47;;;;;;;9.88;7.38;;;;;;;24.86;64.36;101129.03;4980636;28;20114;-84
2022/07/21 10:07:16;;;;;;;9.13;7.20;;;;;;;24.93;64.15;101131.56;4992804;28;20110;-84
2022/07/21 10:09:45;;;;;;;9.20;7.10;;;;;;;25.67;61.76;101127.00;4990028;28;20597;-83
2022/07/21 10:12:12;;;;;;;11.75;7.50;;;;;;;25.55;61.31;101123.56;4991050;28;20061;-83
2022/07/21 10:14:39;;;;;;;9.57;7.40;;;;;;;24.90;63.12;101129.34;4991041;28;20061;-83
2022/07/21 10:17:06;;;;;;;11.40;7.43;;;;;;;24.66;64.19;101140.13;4990547;28;20110;-83
2022/07/21 10:19:41;;;;;;;9.75;7.57;;;;;;;24.15;65.22;101127.50;4999978;28;20050;-84
2022/07/21 10:22:15;;;;;;;9.70;7.80;;;;;;;23.90;65.78;101130.41;5001063;28;20053;-85
2022/07/21 10:24:42;;;;;;;18.88;8.40;;;;;;;23.81;67.02;101142.50;4980524;28;20043;-83
2022/07/21 10:27:12;;;;;;;10.15;7.82;;;;;;;23.79;67.20;101131.22;4989579;28;20100;-83
2022/07/21 10:30:00;;;;;;;9.95;7.70;;;;;;;23.44;67.90;101134.63;4997666;28;20065;-83
2022/07/21 10:32:29;;;;;;;25.00;9.25;;;;;;;23.36;68.60;101145.63;4985425;28;20047;-82
2022/07/21 10:34:57;;;;;;;14.30;8.43;;;;;;;23.24;70.31;101147.44;4988758;28;20053;-83
2022/07/21 10:37:47;;;;;;;12.77;8.05;;;;;;;23.22;72.34;101157.53;4983006;28;20109;-83
2022/07/21 10:40:39;;;;;;;10.45;7.90;;;;;;;23.44;73.13;101164.00;4979456;28;20274;-84
2022/07/21 10:43:44;;;;;;;12.73;8.88;;;;;;;23.32;75.87;101165.81;5012177;28;20050;-82
2022/07/21 10:46:35;;;;;;;12.80;8.43;;;;;;;23.26;76.74;101169.38;5025787;28;20076;-83
2022/07/21 10:49:02;;;;;;;14.90;9.82;;;;;;;23.22;78.77;101170.88;5024452;28;20053;-81
2022/07/21 10:51:31;;;;;;;20.42;10.20;;;;;;;23.37;80.70;101190.00;5018584;28;20045;-83
2022/07/21 10:54:25;;;;;;;15.50;9.63;;;;;;;23.18;79.73;101191.06;5022995;28;20068;-82
2022/07/21 10:57:26;;;;;;;16.17;10.18;;;;;;;23.07;82.07;101194.50;5034836;28;20056;-82
2022/07/21 11:00:31;;;;;;;14.77;11.23;;;;;;;22.92;81.96;101196.75;5020130;28;20073;-82
2022/07/21 11:03:01;;;;;;;16.30;11.13;;;;;;;22.64;84.47;101191.91;5001799;28;20050;-80
2022/07/21 11:05:30;;;;;;;12.20;10.48;;;;;;;22.60;83.84;101198.72;5014383;28;20046;-81
2022/07/21 11:08:16;;;;;;;13.82;11.43;;;;;;;22.47;85.90;101199.66;5019859;28;20128;-83
2022/07/21 11:10:46;;;;;;;15.75;11.18;;;;;;;22.45;85.37;101201.75;5020690;28;20124;-82
2022/07/21 11:13:13;;;;;;;15.27;11.70;;;;;;;22.17;87.93;101211.03;5026272;28;20137;-81
2022/07/21 11:16:00;;;;;;;20.08;13.07;;;;;;;21.72;88.55;101212.16;5029760;28;20488;-80
2022/07/21 11:18:30;;;;;;;18.20;12.48;;;;;;;21.50;90.99;101209.84;5019578;28;20124;-81
2022/07/21 11:21:09;;;;;;;18.05;12.77;;;;;;;21.61;92.09;101216.34;5025542;28;20069;-81
2022/07/21 11:23:42;;;;;;;18.52;13.88;;;;;;;21.36;93.21;101228.75;5023793;28;20569;-83
2022/07/21 11:26:09;;;;;;;17.15;13.60;;;;;;;21.37;94.48;101236.53;5024908;28;20124;-84
2022/07/21 11:28:36;;;;;;;15.85;12.80;;;;;;;21.08;94.36;101227.22;5028184;28;20478;-83